sensor_id;sensor_type;location;lat;lon;timestamp;pressure;altitude;pressure_sealevel;temperature;humidity
65666;BME280;52365;47.464;18.976;2023-05-14T00:00:15;100260.34;;;13.30;69.50
65666;BME280;52365;47.464;18.976;2023-05-14T00:00:36;100257.16;;;13.41;69.14
65666;BME280;52365;47.464;18.976;2023-05-14T00:00:57;100263.28;;;13.65;68.39
65666;BME280;52365;47.464;18.976;2023-05-14T00:01:18;100255.22;;;13.80;67.67
65666;BME280;52365;47.464;18.976;2023-05-14T00:01:41;100254.19;;;13.77;67.42
65666;BME280;52365;47.464;18.976;2023-05-14T00:02:02;100259.91;;;13.31;67.83
65666;BME280;52365;47.464;18.976;2023-05-14T00:02:23;100255.94;;;13.42;68.51
65666;BME280;52365;47.464;18.976;2023-05-14T00:02:39;100254.16;;;13.63;68.11
65666;BME280;52365;47.464;18.976;2023-05-14T00:03:00;100257.44;;;13.67;67.79
65666;BME280;52365;47.464;18.976;2023-05-14T00:03:21;100255.72;;;13.30;68.37
65666;BME280;52365;47.464;18.976;2023-05-14T00:03:42;100258.63;;;13.42;68.52
65666;BME280;52365;47.464;18.976;2023-05-14T00:04:03;100259.28;;;13.37;68.78
65666;BME280;52365;47.464;18.976;2023-05-14T00:04:24;100256.28;;;13.58;68.37
65666;BME280;52365;47.464;18.976;2023-05-14T00:04:46;100252.22;;;13.78;67.82
65666;BME280;52365;47.464;18.976;2023-05-14T00:05:07;100244.66;;;13.82;67.13
65666;BME280;52365;47.464;18.976;2023-05-14T00:05:28;100246.31;;;13.41;67.76
65666;BME280;52365;47.464;18.976;2023-05-14T00:05:50;100244.75;;;13.49;67.92
65666;BME280;52365;47.464;18.976;2023-05-14T00:06:06;100245.75;;;13.37;68.17
65666;BME280;52365;47.464;18.976;2023-05-14T00:06:27;100258.00;;;13.47;68.23
65666;BME280;52365;47.464;18.976;2023-05-14T00:06:44;100255.94;;;13.42;68.38
65666;BME280;52365;47.464;18.976;2023-05-14T00:07:05;100254.53;;;13.22;68.64
65666;BME280;52365;47.464;18.976;2023-05-14T00:07:26;100248.44;;;13.37;68.86
65666;BME280;52365;47.464;18.976;2023-05-14T00:07:50;100251.84;;;13.46;68.69
65666;BME280;52365;47.464;18.976;2023-05-14T00:08:11;100250.19;;;13.49;68.42
65666;BME280;52365;47.464;18.976;2023-05-14T00:08:32;100254.16;;;13.63;68.00
65666;BME280;52365;47.464;18.976;2023-05-14T00:08:53;100252.59;;;13.71;67.83
65666;BME280;52365;47.464;18.976;2023-05-14T00:09:14;100243.19;;;13.81;67.20
65666;BME280;52365;47.464;18.976;2023-05-14T00:09:36;100253.09;;;13.60;67.45
65666;BME280;52365;47.464;18.976;2023-05-14T00:09:57;100247.09;;;13.80;67.42
65666;BME280;52365;47.464;18.976;2023-05-14T00:10:18;100250.06;;;13.67;67.26
65666;BME280;52365;47.464;18.976;2023-05-14T00:10:41;100244.41;;;13.80;67.10
65666;BME280;52365;47.464;18.976;2023-05-14T00:11:02;100244.41;;;13.56;67.11
65666;BME280;52365;47.464;18.976;2023-05-14T00:11:23;100246.59;;;13.43;67.67
65666;BME280;52365;47.464;18.976;2023-05-14T00:11:44;100241.47;;;13.45;67.71
65666;BME280;52365;47.464;18.976;2023-05-14T00:12:05;100239.84;;;13.38;68.08
65666;BME280;52365;47.464;18.976;2023-05-14T00:12:21;100247.28;;;13.28;68.29
65666;BME280;52365;47.464;18.976;2023-05-14T00:12:42;100243.94;;;13.33;68.52
65666;BME280;52365;47.464;18.976;2023-05-14T00:13:03;100237.63;;;13.37;68.25
65666;BME280;52365;47.464;18.976;2023-05-14T00:13:25;100246.59;;;13.43;68.42
65666;BME280;52365;47.464;18.976;2023-05-14T00:13:46;100237.19;;;13.29;68.53
65666;BME280;52365;47.464;18.976;2023-05-14T00:14:07;100245.09;;;13.42;68.49
65666;BME280;52365;47.464;18.976;2023-05-14T00:14:28;100240.37;;;13.75;67.90
65666;BME280;52365;47.464;18.976;2023-05-14T00:14:49;100251.22;;;13.75;67.56
65666;BME280;52365;47.464;18.976;2023-05-14T00:15:10;100238.34;;;14.00;66.94
65666;BME280;52365;47.464;18.976;2023-05-14T00:15:26;100244.34;;;14.04;66.28
65666;BME280;52365;47.464;18.976;2023-05-14T00:15:47;100245.84;;;14.05;66.21
65666;BME280;52365;47.464;18.976;2023-05-14T00:16:08;100240.03;;;13.97;65.97
65666;BME280;52365;47.464;18.976;2023-05-14T00:16:29;100238.91;;;13.65;66.81
65666;BME280;52365;47.464;18.976;2023-05-14T00:16:50;100233.37;;;13.83;66.81
65666;BME280;52365;47.464;18.976;2023-05-14T00:17:11;100243.19;;;13.96;66.43
65666;BME280;52365;47.464;18.976;2023-05-14T00:17:32;100235.59;;;13.70;66.64
65666;BME280;52365;47.464;18.976;2023-05-14T00:17:48;100242.34;;;13.51;67.31
65666;BME280;52365;47.464;18.976;2023-05-14T00:18:09;100247.09;;;13.56;67.40
65666;BME280;52365;47.464;18.976;2023-05-14T00:18:31;100237.25;;;13.68;67.52
65666;BME280;52365;47.464;18.976;2023-05-14T00:18:52;100236.38;;;13.85;66.76
65666;BME280;52365;47.464;18.976;2023-05-14T00:19:14;100239.47;;;13.54;67.10
65666;BME280;52365;47.464;18.976;2023-05-14T00:19:35;100240.19;;;13.79;66.99
65666;BME280;52365;47.464;18.976;2023-05-14T00:19:56;100238.88;;;13.74;66.60
65666;BME280;52365;47.464;18.976;2023-05-14T00:20:17;100238.16;;;13.89;66.34
65666;BME280;52365;47.464;18.976;2023-05-14T00:20:38;100239.94;;;13.53;66.65
65666;BME280;52365;47.464;18.976;2023-05-14T00:20:59;100242.03;;;13.25;67.79
65666;BME280;52365;47.464;18.976;2023-05-14T00:21:20;100239.09;;;13.38;68.06
65666;BME280;52365;47.464;18.976;2023-05-14T00:21:41;100241.41;;;13.54;67.98
65666;BME280;52365;47.464;18.976;2023-05-14T00:22:02;100238.41;;;13.76;67.30
65666;BME280;52365;47.464;18.976;2023-05-14T00:22:23;100234.97;;;13.27;67.71
65666;BME280;52365;47.464;18.976;2023-05-14T00:22:44;100234.22;;;13.27;68.42
65666;BME280;52365;47.464;18.976;2023-05-14T00:23:05;100228.53;;;13.49;68.09
65666;BME280;52365;47.464;18.976;2023-05-14T00:23:21;100238.78;;;13.45;67.97
65666;BME280;52365;47.464;18.976;2023-05-14T00:23:42;100232.78;;;13.41;68.11
65666;BME280;52365;47.464;18.976;2023-05-14T00:24:04;100234.09;;;13.45;68.04
65666;BME280;52365;47.464;18.976;2023-05-14T00:24:25;100239.88;;;13.05;68.99
65666;BME280;52365;47.464;18.976;2023-05-14T00:24:46;100238.03;;;13.11;69.37
65666;BME280;52365;47.464;18.976;2023-05-14T00:25:07;100243.56;;;13.50;68.72
65666;BME280;52365;47.464;18.976;2023-05-14T00:25:24;100235.72;;;13.28;68.59
65666;BME280;52365;47.464;18.976;2023-05-14T00:25:45;100233.47;;;13.26;68.74
65666;BME280;52365;47.464;18.976;2023-05-14T00:26:06;100237.59;;;13.03;69.33
65666;BME280;52365;47.464;18.976;2023-05-14T00:26:27;100239.81;;;13.14;69.61
65666;BME280;52365;47.464;18.976;2023-05-14T00:26:48;100233.69;;;13.38;69.19
65666;BME280;52365;47.464;18.976;2023-05-14T00:27:09;100238.69;;;13.30;68.70
65666;BME280;52365;47.464;18.976;2023-05-14T00:27:30;100240.31;;;13.37;68.71
65666;BME280;52365;47.464;18.976;2023-05-14T00:27:51;100235.75;;;13.43;68.48
65666;BME280;52365;47.464;18.976;2023-05-14T00:28:12;100234.75;;;13.40;68.03
65666;BME280;52365;47.464;18.976;2023-05-14T00:28:33;100238.94;;;13.08;68.85
65666;BME280;52365;47.464;18.976;2023-05-14T00:28:54;100243.31;;;13.05;69.23
65666;BME280;52365;47.464;18.976;2023-05-14T00:29:15;100236.53;;;13.10;69.02
65666;BME280;52365;47.464;18.976;2023-05-14T00:29:36;100235.88;;;13.24;68.74
65666;BME280;52365;47.464;18.976;2023-05-14T00:29:57;100234.66;;;13.25;68.50
65666;BME280;52365;47.464;18.976;2023-05-14T00:30:19;100233.28;;;13.30;68.30
65666;BME280;52365;47.464;18.976;2023-05-14T00:30:35;100237.13;;;13.14;68.74
65666;BME280;52365;47.464;18.976;2023-05-14T00:30:56;100237.94;;;12.96;69.29
65666;BME280;52365;47.464;18.976;2023-05-14T00:31:17;100231.16;;;13.01;69.46
65666;BME280;52365;47.464;18.976;2023-05-14T00:31:38;100236.00;;;13.30;69.12
65666;BME280;52365;47.464;18.976;2023-05-14T00:31:58;100236.69;;;13.06;69.12
65666;BME280;52365;47.464;18.976;2023-05-14T00:32:15;100235.31;;;13.11;69.13
65666;BME280;52365;47.464;18.976;2023-05-14T00:32:36;100240.56;;;13.15;69.24
65666;BME280;52365;47.464;18.976;2023-05-14T00:32:57;100235.72;;;13.19;68.96
65666;BME280;52365;47.464;18.976;2023-05-14T00:33:18;100232.91;;;13.13;69.35
65666;BME280;52365;47.464;18.976;2023-05-14T00:33:39;100233.13;;;13.33;68.86
65666;BME280;52365;47.464;18.976;2023-05-14T00:34:00;100225.94;;;13.30;68.70
65666;BME280;52365;47.464;18.976;2023-05-14T00:34:21;100234.00;;;13.06;68.90
65666;BME280;52365;47.464;18.976;2023-05-14T00:34:42;100228.09;;;13.17;69.13
65666;BME280;52365;47.464;18.976;2023-05-14T00:35:03;100229.72;;;13.24;69.17
65666;BME280;52365;47.464;18.976;2023-05-14T00:35:24;100229.22;;;13.34;68.79
65666;BME280;52365;47.464;18.976;2023-05-14T00:35:46;100228.00;;;13.35;68.70
65666;BME280;52365;47.464;18.976;2023-05-14T00:36:02;100227.84;;;13.39;68.77
65666;BME280;52365;47.464;18.976;2023-05-14T00:36:23;100222.22;;;13.19;68.99
65666;BME280;52365;47.464;18.976;2023-05-14T00:36:44;100220.56;;;13.12;69.47
65666;BME280;52365;47.464;18.976;2023-05-14T00:37:05;100230.97;;;13.14;69.60
65666;BME280;52365;47.464;18.976;2023-05-14T00:37:26;100222.88;;;13.38;69.18
65666;BME280;52365;47.464;18.976;2023-05-14T00:37:47;100226.66;;;13.55;68.69
65666;BME280;52365;47.464;18.976;2023-05-14T00:38:09;100224.00;;;13.70;68.07
65666;BME280;52365;47.464;18.976;2023-05-14T00:38:30;100226.53;;;13.25;68.61
65666;BME280;52365;47.464;18.976;2023-05-14T00:38:46;100231.41;;;13.12;69.51
65666;BME280;52365;47.464;18.976;2023-05-14T00:39:07;100235.88;;;13.24;69.49
65666;BME280;52365;47.464;18.976;2023-05-14T00:39:28;100224.94;;;13.43;69.22
65666;BME280;52365;47.464;18.976;2023-05-14T00:39:49;100219.63;;;13.24;69.28
65666;BME280;52365;47.464;18.976;2023-05-14T00:40:11;100231.81;;;13.20;69.33
65666;BME280;52365;47.464;18.976;2023-05-14T00:40:32;100219.97;;;13.17;69.88
65666;BME280;52365;47.464;18.976;2023-05-14T00:40:49;100230.22;;;13.13;69.92
65666;BME280;52365;47.464;18.976;2023-05-14T00:41:13;100231.69;;;13.23;69.84
65666;BME280;52365;47.464;18.976;2023-05-14T00:41:34;100227.63;;;13.19;70.03
65666;BME280;52365;47.464;18.976;2023-05-14T00:41:55;100228.38;;;13.19;69.95
65666;BME280;52365;47.464;18.976;2023-05-14T00:42:16;100225.06;;;13.24;69.86
65666;BME280;52365;47.464;18.976;2023-05-14T00:42:38;100230.66;;;13.11;70.33
65666;BME280;52365;47.464;18.976;2023-05-14T00:42:59;100216.97;;;13.15;69.99
65666;BME280;52365;47.464;18.976;2023-05-14T00:43:21;100224.31;;;12.91;70.74
65666;BME280;52365;47.464;18.976;2023-05-14T00:43:42;100227.06;;;12.72;71.34
65666;BME280;52365;47.464;18.976;2023-05-14T00:44:03;100227.44;;;12.56;71.89
65666;BME280;52365;47.464;18.976;2023-05-14T00:44:24;100226.94;;;12.67;72.09
65666;BME280;52365;47.464;18.976;2023-05-14T00:44:45;100219.66;;;12.91;71.75
65666;BME280;52365;47.464;18.976;2023-05-14T00:45:07;100218.16;;;13.14;71.46
65666;BME280;52365;47.464;18.976;2023-05-14T00:45:28;100225.19;;;13.21;70.62
65666;BME280;52365;47.464;18.976;2023-05-14T00:45:50;100213.97;;;13.13;70.45
65666;BME280;52365;47.464;18.976;2023-05-14T00:46:11;100217.81;;;13.30;70.10
65666;BME280;52365;47.464;18.976;2023-05-14T00:46:32;100217.59;;;13.10;70.40
65666;BME280;52365;47.464;18.976;2023-05-14T00:46:53;100221.88;;;12.93;70.58
65666;BME280;52365;47.464;18.976;2023-05-14T00:47:14;100221.25;;;12.65;71.24
65666;BME280;52365;47.464;18.976;2023-05-14T00:47:36;100220.50;;;12.55;71.69
65666;BME280;52365;47.464;18.976;2023-05-14T00:47:59;100224.56;;;12.50;71.89
65666;BME280;52365;47.464;18.976;2023-05-14T00:48:20;100221.62;;;12.81;71.69
65666;BME280;52365;47.464;18.976;2023-05-14T00:48:41;100224.88;;;12.95;71.26
65666;BME280;52365;47.464;18.976;2023-05-14T00:49:02;100220.50;;;12.97;70.91
65666;BME280;52365;47.464;18.976;2023-05-14T00:49:24;100215.53;;;13.05;71.02
65666;BME280;52365;47.464;18.976;2023-05-14T00:49:45;100219.19;;;13.26;70.20
65666;BME280;52365;47.464;18.976;2023-05-14T00:50:07;100212.28;;;13.16;69.97
65666;BME280;52365;47.464;18.976;2023-05-14T00:50:23;100214.47;;;13.02;70.18
65666;BME280;52365;47.464;18.976;2023-05-14T00:50:45;100214.03;;;12.95;70.37
65666;BME280;52365;47.464;18.976;2023-05-14T00:51:06;100217.69;;;12.92;70.63
65666;BME280;52365;47.464;18.976;2023-05-14T00:51:28;100215.56;;;12.96;70.48
65666;BME280;52365;47.464;18.976;2023-05-14T00:51:49;100220.97;;;12.96;70.42
65666;BME280;52365;47.464;18.976;2023-05-14T00:52:11;100218.62;;;12.79;70.95
65666;BME280;52365;47.464;18.976;2023-05-14T00:52:32;100218.75;;;12.85;70.88
65666;BME280;52365;47.464;18.976;2023-05-14T00:52:53;100217.63;;;13.01;70.51
65666;BME280;52365;47.464;18.976;2023-05-14T00:53:15;100217.19;;;12.69;70.83
65666;BME280;52365;47.464;18.976;2023-05-14T00:53:36;100218.16;;;12.81;71.27
65666;BME280;52365;47.464;18.976;2023-05-14T00:53:53;100218.53;;;12.98;70.75
65666;BME280;52365;47.464;18.976;2023-05-14T00:54:15;100211.34;;;12.95;70.59
65666;BME280;52365;47.464;18.976;2023-05-14T00:54:37;100211.72;;;13.11;70.52
65666;BME280;52365;47.464;18.976;2023-05-14T00:54:58;100210.63;;;13.18;70.02
65666;BME280;52365;47.464;18.976;2023-05-14T00:55:15;100217.44;;;13.38;69.45
65666;BME280;52365;47.464;18.976;2023-05-14T00:55:40;100209.41;;;13.19;69.22
65666;BME280;52365;47.464;18.976;2023-05-14T00:55:57;100210.78;;;13.24;69.53
65666;BME280;52365;47.464;18.976;2023-05-14T00:56:18;100208.59;;;13.37;69.08
65666;BME280;52365;47.464;18.976;2023-05-14T00:56:39;100203.22;;;13.28;68.98
65666;BME280;52365;47.464;18.976;2023-05-14T00:56:55;100206.47;;;13.08;69.34
65666;BME280;52365;47.464;18.976;2023-05-14T00:57:17;100211.75;;;13.02;69.91
65666;BME280;52365;47.464;18.976;2023-05-14T00:57:34;100200.78;;;13.06;69.97
65666;BME280;52365;47.464;18.976;2023-05-14T00:57:56;100204.91;;;13.16;69.71
65666;BME280;52365;47.464;18.976;2023-05-14T00:58:18;100197.47;;;13.02;69.86
65666;BME280;52365;47.464;18.976;2023-05-14T00:58:40;100207.84;;;13.03;70.04
65666;BME280;52365;47.464;18.976;2023-05-14T00:59:01;100209.81;;;13.03;70.04
65666;BME280;52365;47.464;18.976;2023-05-14T00:59:22;100199.13;;;12.99;70.33
65666;BME280;52365;47.464;18.976;2023-05-14T00:59:43;100202.03;;;12.96;70.36
65666;BME280;52365;47.464;18.976;2023-05-14T01:00:05;100195.31;;;12.91;70.51
65666;BME280;52365;47.464;18.976;2023-05-14T01:00:26;100203.22;;;12.95;70.68
65666;BME280;52365;47.464;18.976;2023-05-14T01:00:47;100196.69;;;13.10;70.23
65666;BME280;52365;47.464;18.976;2023-05-14T01:01:08;100203.53;;;12.97;70.42
65666;BME280;52365;47.464;18.976;2023-05-14T01:01:29;100196.84;;;13.07;70.33
65666;BME280;52365;47.464;18.976;2023-05-14T01:01:46;100196.28;;;13.03;70.44
65666;BME280;52365;47.464;18.976;2023-05-14T01:02:07;100200.50;;;13.04;70.32
65666;BME280;52365;47.464;18.976;2023-05-14T01:02:28;100201.47;;;12.92;70.50
65666;BME280;52365;47.464;18.976;2023-05-14T01:02:49;100201.50;;;12.82;70.62
65666;BME280;52365;47.464;18.976;2023-05-14T01:03:10;100197.47;;;13.02;70.45
65666;BME280;52365;47.464;18.976;2023-05-14T01:03:31;100194.25;;;12.89;70.56
65666;BME280;52365;47.464;18.976;2023-05-14T01:03:53;100198.09;;;12.64;70.86
65666;BME280;52365;47.464;18.976;2023-05-14T01:04:17;100199.75;;;12.70;71.21
65666;BME280;52365;47.464;18.976;2023-05-14T01:04:38;100198.56;;;12.62;71.40
65666;BME280;52365;47.464;18.976;2023-05-14T01:05:00;100197.03;;;12.70;71.30
65666;BME280;52365;47.464;18.976;2023-05-14T01:05:23;100195.66;;;12.75;71.21
65666;BME280;52365;47.464;18.976;2023-05-14T01:08:01;100185.84;;;12.87;70.73
65666;BME280;52365;47.464;18.976;2023-05-14T01:10:07;100183.78;;;12.72;71.20
65666;BME280;52365;47.464;18.976;2023-05-14T01:11:21;100192.66;;;12.73;71.16
65666;BME280;52365;47.464;18.976;2023-05-14T01:11:23;100185.28;;;12.82;70.59
65666;BME280;52365;47.464;18.976;2023-05-14T01:12:26;100197.00;;;12.79;71.04
65666;BME280;52365;47.464;18.976;2023-05-14T01:13:27;100188.88;;;12.79;71.19
65666;BME280;52365;47.464;18.976;2023-05-14T01:15:22;100186.59;;;12.87;70.28
65666;BME280;52365;47.464;18.976;2023-05-14T01:15:36;100186.72;;;12.93;70.29
65666;BME280;52365;47.464;18.976;2023-05-14T01:15:55;100185.31;;;12.64;70.77
65666;BME280;52365;47.464;18.976;2023-05-14T01:16:18;100187.66;;;12.80;70.72
65666;BME280;52365;47.464;18.976;2023-05-14T01:16:39;100181.12;;;12.96;70.41
65666;BME280;52365;47.464;18.976;2023-05-14T01:17:03;100189.25;;;12.96;70.18
65666;BME280;52365;47.464;18.976;2023-05-14T01:17:27;100186.66;;;13.02;69.77
65666;BME280;52365;47.464;18.976;2023-05-14T01:17:55;100180.03;;;13.03;69.79
65666;BME280;52365;47.464;18.976;2023-05-14T01:18:17;100182.75;;;13.03;69.68
65666;BME280;52365;47.464;18.976;2023-05-14T01:18:39;100179.66;;;12.86;69.76
65666;BME280;52365;47.464;18.976;2023-05-14T01:19:01;100190.69;;;12.82;70.20
65666;BME280;52365;47.464;18.976;2023-05-14T01:19:36;100185.22;;;12.92;70.23
65666;BME280;52365;47.464;18.976;2023-05-14T01:19:58;100183.63;;;13.09;69.39
65666;BME280;52365;47.464;18.976;2023-05-14T01:20:20;100177.47;;;13.08;69.41
65666;BME280;52365;47.464;18.976;2023-05-14T01:20:41;100179.22;;;12.88;69.56
65666;BME280;52365;47.464;18.976;2023-05-14T01:21:04;100181.34;;;12.83;69.76
65666;BME280;52365;47.464;18.976;2023-05-14T01:21:37;100188.91;;;12.70;70.36
65666;BME280;52365;47.464;18.976;2023-05-14T01:21:58;100184.75;;;12.60;70.67
65666;BME280;52365;47.464;18.976;2023-05-14T01:22:19;100181.59;;;12.62;70.89
65666;BME280;52365;47.464;18.976;2023-05-14T01:22:35;100185.00;;;12.71;70.81
65666;BME280;52365;47.464;18.976;2023-05-14T01:22:56;100183.50;;;12.70;70.79
65666;BME280;52365;47.464;18.976;2023-05-14T01:23:12;100190.72;;;12.73;70.82
65666;BME280;52365;47.464;18.976;2023-05-14T01:23:34;100182.97;;;12.57;71.15
65666;BME280;52365;47.464;18.976;2023-05-14T01:23:55;100182.06;;;12.51;71.39
65666;BME280;52365;47.464;18.976;2023-05-14T01:24:16;100185.87;;;12.77;70.97
65666;BME280;52365;47.464;18.976;2023-05-14T01:24:37;100183.09;;;12.96;70.43
65666;BME280;52365;47.464;18.976;2023-05-14T01:24:59;100186.28;;;12.85;70.23
65666;BME280;52365;47.464;18.976;2023-05-14T01:25:20;100178.44;;;12.96;70.11
65666;BME280;52365;47.464;18.976;2023-05-14T01:25:41;100178.88;;;12.95;69.96
65666;BME280;52365;47.464;18.976;2023-05-14T01:26:02;100172.59;;;12.89;69.90
65666;BME280;52365;47.464;18.976;2023-05-14T01:26:23;100175.81;;;12.78;69.98
65666;BME280;52365;47.464;18.976;2023-05-14T01:26:44;100176.53;;;12.88;70.32
65666;BME280;52365;47.464;18.976;2023-05-14T01:27:05;100174.16;;;12.80;70.37
65666;BME280;52365;47.464;18.976;2023-05-14T01:27:49;100177.09;;;12.92;70.24
65666;BME280;52365;47.464;18.976;2023-05-14T01:28:38;100183.16;;;12.77;70.23
65666;BME280;52365;47.464;18.976;2023-05-14T01:29:20;100184.97;;;12.80;70.53
65666;BME280;52365;47.464;18.976;2023-05-14T01:29:45;100178.16;;;12.61;70.74
65666;BME280;52365;47.464;18.976;2023-05-14T01:30:14;100171.25;;;12.51;70.91
65666;BME280;52365;47.464;18.976;2023-05-14T01:31:04;100180.00;;;12.46;71.49
65666;BME280;52365;47.464;18.976;2023-05-14T01:31:29;100172.69;;;12.70;71.11
65666;BME280;52365;47.464;18.976;2023-05-14T01:31:54;100180.56;;;12.50;70.99
65666;BME280;52365;47.464;18.976;2023-05-14T01:32:16;100188.12;;;12.37;71.80
65666;BME280;52365;47.464;18.976;2023-05-14T01:32:38;100176.31;;;12.67;71.46
65666;BME280;52365;47.464;18.976;2023-05-14T01:33:05;100174.06;;;12.66;70.98
65666;BME280;52365;47.464;18.976;2023-05-14T01:33:28;100174.06;;;12.66;70.78
65666;BME280;52365;47.464;18.976;2023-05-14T01:33:49;100174.03;;;12.32;71.22
65666;BME280;52365;47.464;18.976;2023-05-14T01:34:13;100180.91;;;12.33;71.62
65666;BME280;52365;47.464;18.976;2023-05-14T01:34:35;100174.25;;;12.53;71.48
65666;BME280;52365;47.464;18.976;2023-05-14T01:34:59;100174.03;;;12.75;70.96
65666;BME280;52365;47.464;18.976;2023-05-14T01:35:28;100174.44;;;12.82;70.37
65666;BME280;52365;47.464;18.976;2023-05-14T01:35:49;100180.03;;;12.79;70.16
65666;BME280;52365;47.464;18.976;2023-05-14T01:36:13;100176.72;;;12.75;70.28
65666;BME280;52365;47.464;18.976;2023-05-14T01:36:34;100170.28;;;12.72;70.42
65666;BME280;52365;47.464;18.976;2023-05-14T01:36:51;100173.13;;;12.78;70.40
65666;BME280;52365;47.464;18.976;2023-05-14T01:37:14;100177.09;;;12.58;70.68
65666;BME280;52365;47.464;18.976;2023-05-14T01:37:36;100172.84;;;12.67;70.48
65666;BME280;52365;47.464;18.976;2023-05-14T01:38:00;100168.12;;;12.52;70.90
65666;BME280;52365;47.464;18.976;2023-05-14T01:38:22;100168.12;;;12.52;71.22
65666;BME280;52365;47.464;18.976;2023-05-14T01:38:44;100165.28;;;12.80;70.59
65666;BME280;52365;47.464;18.976;2023-05-14T01:39:07;100171.03;;;12.73;70.45
65666;BME280;52365;47.464;18.976;2023-05-14T01:39:30;100169.19;;;12.79;70.22
65666;BME280;52365;47.464;18.976;2023-05-14T01:39:53;100170.47;;;12.69;70.54
65666;BME280;52365;47.464;18.976;2023-05-14T01:40:16;100167.09;;;12.83;70.17
65666;BME280;52365;47.464;18.976;2023-05-14T01:40:37;100161.50;;;12.87;70.02
65666;BME280;52365;47.464;18.976;2023-05-14T01:40:59;100172.84;;;13.00;69.66
65666;BME280;52365;47.464;18.976;2023-05-14T01:41:21;100167.62;;;12.96;69.82
65666;BME280;52365;47.464;18.976;2023-05-14T01:41:38;100165.66;;;12.97;69.55
65666;BME280;52365;47.464;18.976;2023-05-14T01:42:00;100166.91;;;12.87;69.57
65666;BME280;52365;47.464;18.976;2023-05-14T01:42:22;100172.00;;;12.60;70.24
65666;BME280;52365;47.464;18.976;2023-05-14T01:42:44;100164.59;;;12.70;70.37
65666;BME280;52365;47.464;18.976;2023-05-14T01:43:05;100165.44;;;12.76;70.29
65666;BME280;52365;47.464;18.976;2023-05-14T01:43:27;100163.38;;;12.71;70.20
65666;BME280;52365;47.464;18.976;2023-05-14T01:43:48;100158.94;;;12.50;70.82
65666;BME280;52365;47.464;18.976;2023-05-14T01:44:05;100156.44;;;12.37;71.15
65666;BME280;52365;47.464;18.976;2023-05-14T01:44:26;100164.50;;;12.46;71.29
65666;BME280;52365;47.464;18.976;2023-05-14T01:44:47;100161.34;;;12.57;71.11
65666;BME280;52365;47.464;18.976;2023-05-14T01:45:09;100157.72;;;12.60;71.10
65666;BME280;52365;47.464;18.976;2023-05-14T01:45:30;100156.41;;;12.46;71.14
65666;BME280;52365;47.464;18.976;2023-05-14T01:45:54;100157.19;;;12.38;71.57
65666;BME280;52365;47.464;18.976;2023-05-14T01:46:18;100154.44;;;12.56;71.20
65666;BME280;52365;47.464;18.976;2023-05-14T01:46:34;100146.81;;;12.45;71.48
65666;BME280;52365;47.464;18.976;2023-05-14T01:46:56;100156.28;;;12.41;71.56
65666;BME280;52365;47.464;18.976;2023-05-14T01:47:12;100150.31;;;12.70;70.95
65666;BME280;52365;47.464;18.976;2023-05-14T01:47:33;100146.41;;;12.71;70.63
65666;BME280;52365;47.464;18.976;2023-05-14T01:47:54;100141.41;;;12.78;70.45
65666;BME280;52365;47.464;18.976;2023-05-14T01:48:10;100141.06;;;12.85;69.96
65666;BME280;52365;47.464;18.976;2023-05-14T01:48:31;100145.03;;;12.75;70.26
65666;BME280;52365;47.464;18.976;2023-05-14T01:48:52;100138.41;;;12.76;70.28
65666;BME280;52365;47.464;18.976;2023-05-14T01:49:13;100134.78;;;12.79;70.23
65666;BME280;52365;47.464;18.976;2023-05-14T01:49:34;100135.53;;;12.80;70.32
65666;BME280;52365;47.464;18.976;2023-05-14T01:49:56;100142.37;;;12.66;70.29
65666;BME280;52365;47.464;18.976;2023-05-14T01:50:12;100138.28;;;12.95;70.04
65666;BME280;52365;47.464;18.976;2023-05-14T01:50:33;100139.78;;;12.72;69.89
65666;BME280;52365;47.464;18.976;2023-05-14T01:50:54;100142.66;;;12.68;70.08
65666;BME280;52365;47.464;18.976;2023-05-14T01:51:15;100143.97;;;12.73;70.08
65666;BME280;52365;47.464;18.976;2023-05-14T01:51:37;100139.72;;;12.57;70.30
65666;BME280;52365;47.464;18.976;2023-05-14T01:51:58;100138.84;;;12.42;70.94
65666;BME280;52365;47.464;18.976;2023-05-14T01:52:19;100139.47;;;12.37;71.20
65666;BME280;52365;47.464;18.976;2023-05-14T01:52:40;100132.91;;;12.28;71.57
65666;BME280;52365;47.464;18.976;2023-05-14T01:53:02;100127.91;;;12.36;71.72
65666;BME280;52365;47.464;18.976;2023-05-14T01:53:18;100133.78;;;12.34;71.64
65666;BME280;52365;47.464;18.976;2023-05-14T01:53:39;100129.53;;;12.52;71.39
65666;BME280;52365;47.464;18.976;2023-05-14T01:54:00;100121.69;;;12.54;71.19
65666;BME280;52365;47.464;18.976;2023-05-14T01:54:21;100127.53;;;12.62;70.87
65666;BME280;52365;47.464;18.976;2023-05-14T01:54:42;100129.56;;;12.33;71.44
65666;BME280;52365;47.464;18.976;2023-05-14T01:55:03;100131.09;;;12.34;71.59
65666;BME280;52365;47.464;18.976;2023-05-14T01:55:25;100129.00;;;12.63;71.23
65666;BME280;52365;47.464;18.976;2023-05-14T01:55:46;100123.94;;;12.55;70.91
65666;BME280;52365;47.464;18.976;2023-05-14T01:56:07;100125.59;;;12.53;70.95
65666;BME280;52365;47.464;18.976;2023-05-14T01:56:28;100127.34;;;12.32;71.34
65666;BME280;52365;47.464;18.976;2023-05-14T01:56:49;100126.66;;;12.46;71.34
65666;BME280;52365;47.464;18.976;2023-05-14T01:57:10;100129.84;;;12.45;71.29
65666;BME280;52365;47.464;18.976;2023-05-14T01:57:31;100128.81;;;12.33;71.51
65666;BME280;52365;47.464;18.976;2023-05-14T01:57:52;100127.88;;;12.45;71.39
65666;BME280;52365;47.464;18.976;2023-05-14T01:58:13;100131.63;;;12.48;71.24